Terminal Aerodrome Forecast
Issued by NWS

Home | Current Version | Previous Version | Text Only | Print | Product List | Glossary On
Versions: 1 2 3 4 5 6 7 8 9 10 11 12 13 14 15 16 17 18 19 20 21
000
FTUS43 KGRR 041120
TAFLAN
TAF
KLAN 041120Z 0412/0512 00000KT 2SM BR SKC
     FM041300 00000KT 4SM BR SCT250
     FM041400 27005KT P6SM FEW250
     FM050800 00000KT 4SM BR SKC=

USA.gov is the U.S. government's official web portal to all federal, state and local government web resources and services.